createdAt,value
2018-12-19T00:00:56.913Z,99475.59
2018-12-19T00:03:29.944Z,99471.55
2018-12-19T00:06:02.992Z,99479.96
2018-12-19T00:08:34.116Z,99477.63
2018-12-19T00:11:05.299Z,99473.28
2018-12-19T00:13:36.267Z,99461.54
2018-12-19T00:16:07.351Z,99468.81
2018-12-19T00:18:38.324Z,99468.91
2018-12-19T00:21:09.340Z,99470.81
2018-12-19T00:23:40.403Z,99470.27
2018-12-19T00:26:11.481Z,99466.42
2018-12-19T00:28:44.501Z,99458.14
2018-12-19T00:31:17.547Z,99446.63
2018-12-19T00:33:50.494Z,99446.47
2018-12-19T00:36:22.542Z,99442.44
2018-12-19T00:38:53.616Z,99436.02
2018-12-19T00:41:24.742Z,99433.48
2018-12-19T00:43:55.813Z,99437.36
2018-12-19T00:46:26.912Z,99430.61
2018-12-19T00:48:58.075Z,99431.47
2018-12-19T00:51:29.202Z,99428.55
2018-12-19T00:54:00.279Z,99427.19
2018-12-19T00:56:31.316Z,99422.20
2018-12-19T00:59:02.427Z,99420.83
2018-12-19T01:01:33.530Z,99422.20
2018-12-19T01:04:04.615Z,99417.61
2018-12-19T01:06:35.590Z,99411.56
2018-12-19T01:09:08.333Z,99421.53
2018-12-19T01:11:41.296Z,99415.27
2018-12-19T01:14:12.448Z,99411.30
2018-12-19T01:16:43.555Z,99417.41
2018-12-19T01:19:14.639Z,99425.66
2018-12-19T01:21:45.622Z,99422.42
2018-12-19T01:24:17.006Z,99429.17
2018-12-19T01:26:48.015Z,99428.75
2018-12-19T01:29:19.248Z,99427.23
2018-12-19T01:31:50.351Z,99424.94
2018-12-19T01:34:21.423Z,99436.66
2018-12-19T01:36:52.552Z,99420.23
2018-12-19T01:39:23.632Z,99430.92
2018-12-19T01:41:54.635Z,99436.34
2018-12-19T01:44:25.742Z,99443.65
2018-12-19T01:47:01.923Z,99435.62
2018-12-19T01:49:38.349Z,99416.75
2018-12-19T01:52:14.692Z,99412.70
2018-12-19T01:54:51.075Z,99410.31
2018-12-19T01:57:27.279Z,99411.45
2018-12-19T02:00:03.469Z,99404.77
2018-12-19T02:02:39.876Z,99400.19
2018-12-19T02:05:17.160Z,99393.60
2018-12-19T02:07:53.380Z,99403.52
2018-12-19T02:10:29.516Z,99419.84
2018-12-19T02:13:05.823Z,99407.89
2018-12-19T02:15:43.113Z,99403.12
2018-12-19T02:18:19.455Z,99402.07
2018-12-19T02:20:55.780Z,99412.08
2018-12-19T02:23:32.168Z,99417.84
2018-12-19T02:26:08.534Z,99406.10
2018-12-19T02:28:46.049Z,99415.64
2018-12-19T02:31:22.369Z,99415.86
2018-12-19T02:33:58.918Z,99418.39
2018-12-19T02:36:35.476Z,99416.81
2018-12-19T02:39:11.692Z,99420.16
2018-12-19T02:41:48.019Z,99412.56
2018-12-19T02:44:24.213Z,99409.44
2018-12-19T02:47:00.398Z,99403.88
2018-12-19T02:49:36.740Z,99400.00
2018-12-19T02:52:13.070Z,99408.67
2018-12-19T02:54:49.205Z,99409.15
2018-12-19T02:57:25.527Z,99415.49
2018-12-19T03:00:01.683Z,99411.55
2018-12-19T03:02:40.075Z,99408.36
2018-12-19T03:05:16.234Z,99405.75
2018-12-19T03:07:52.490Z,99401.81
2018-12-19T03:10:28.707Z,99394.99
2018-12-19T03:13:05.096Z,99393.09
2018-12-19T03:15:41.255Z,99389.89
2018-12-19T03:18:17.424Z,99381.80
2018-12-19T03:20:53.638Z,99379.66
2018-12-19T03:23:30.031Z,99382.84
2018-12-19T03:26:06.469Z,99374.53
2018-12-19T03:28:42.717Z,99373.64
2018-12-19T03:31:18.939Z,99379.51
2018-12-19T03:33:55.301Z,99382.28
2018-12-19T03:36:31.603Z,99376.97
2018-12-19T03:39:08.709Z,99372.94
2018-12-19T03:41:44.974Z,99371.21
2018-12-19T03:44:21.120Z,99374.20
2018-12-19T03:46:57.484Z,99374.36
2018-12-19T03:49:33.734Z,99377.84
2018-12-19T03:52:10.003Z,99377.41
2018-12-19T03:54:46.352Z,99377.47
2018-12-19T03:57:22.934Z,99381.36
2018-12-19T03:59:59.192Z,99378.10
2018-12-19T04:02:35.427Z,99380.00
2018-12-19T04:05:11.676Z,99384.69
2018-12-19T04:07:47.832Z,99386.20
2018-12-19T04:10:24.054Z,99391.05
2018-12-19T04:13:00.228Z,99388.84
2018-12-19T04:15:31.304Z,99385.02
2018-12-19T04:18:02.310Z,99380.84
2018-12-19T04:20:33.410Z,99380.05
2018-12-19T04:23:04.486Z,99375.44
2018-12-19T04:25:35.489Z,99375.82
2018-12-19T04:28:06.578Z,99371.96
2018-12-19T04:30:40.027Z,99379.72
2018-12-19T04:33:11.108Z,99372.92
2018-12-19T04:35:42.348Z,99379.23
2018-12-19T04:38:14.041Z,99374.33
2018-12-19T04:40:45.163Z,99375.94
2018-12-19T04:43:17.091Z,99370.77
2018-12-19T04:45:48.210Z,99372.48
2018-12-19T04:48:19.290Z,99367.09
2018-12-19T04:50:50.417Z,99369.72
2018-12-19T04:53:21.488Z,99379.69
2018-12-19T04:55:52.604Z,99376.77
2018-12-19T04:58:23.772Z,99374.16
2018-12-19T05:00:54.772Z,99377.31
2018-12-19T05:03:25.848Z,99382.73
2018-12-19T05:05:56.935Z,99383.61
2018-12-19T05:08:28.003Z,99383.95
2018-12-19T05:10:59.155Z,99388.14
2018-12-19T05:13:30.259Z,99375.55
2018-12-19T05:16:01.422Z,99376.50
2018-12-19T05:18:32.567Z,99376.09
2018-12-19T05:21:03.761Z,99382.73
2018-12-19T05:23:34.850Z,99385.42
2018-12-19T05:26:05.976Z,99387.34
2018-12-19T05:28:37.047Z,99380.38
2018-12-19T05:31:08.158Z,99383.46
2018-12-19T05:33:39.213Z,99380.62
2018-12-19T05:36:10.315Z,99390.33
2018-12-19T05:38:41.287Z,99388.45
2018-12-19T05:41:12.596Z,99385.58
2018-12-19T05:43:43.684Z,99385.76
2018-12-19T05:46:14.679Z,99389.45
2018-12-19T05:48:45.750Z,99385.11
2018-12-19T05:51:16.945Z,99385.53
2018-12-19T05:53:48.040Z,99386.93
2018-12-19T05:56:19.168Z,99391.21
2018-12-19T05:58:50.261Z,99385.69
2018-12-19T06:01:22.432Z,99388.92
2018-12-19T06:03:57.443Z,99392.57
2018-12-19T06:06:28.636Z,99395.02
2018-12-19T06:08:59.595Z,99389.23
2018-12-19T06:11:30.735Z,99390.82
2018-12-19T06:14:01.845Z,99388.85
2018-12-19T06:16:33.723Z,99391.94
2018-12-19T06:19:04.844Z,99381.56
2018-12-19T06:21:36.040Z,99382.89
2018-12-19T06:24:07.127Z,99386.70
2018-12-19T06:26:38.460Z,99379.08
2018-12-19T06:29:09.564Z,99380.46
2018-12-19T06:31:40.658Z,99375.75
2018-12-19T06:34:11.757Z,99378.22
2018-12-19T06:36:42.860Z,99383.53
2018-12-19T06:39:14.064Z,99388.59
2018-12-19T06:41:45.151Z,99385.48
2018-12-19T06:44:16.241Z,99381.59
2018-12-19T06:46:47.362Z,99374.00
2018-12-19T06:49:19.264Z,99373.18
2018-12-19T06:51:50.390Z,99373.35
2018-12-19T06:54:21.773Z,99376.03
2018-12-19T06:56:52.987Z,99385.88
2018-12-19T06:59:24.072Z,99384.37
2018-12-19T07:01:55.185Z,99380.73
2018-12-19T07:04:26.281Z,99388.01
2018-12-19T07:06:57.378Z,99386.66
2018-12-19T07:09:28.532Z,99384.66
2018-12-19T07:11:59.509Z,99385.39
2018-12-19T07:14:30.587Z,99390.10
2018-12-19T07:17:01.607Z,99393.80
2018-12-19T07:19:32.740Z,99395.46
2018-12-19T07:22:03.841Z,99399.98
2018-12-19T07:24:34.992Z,99401.59
2018-12-19T07:27:06.198Z,99395.02
2018-12-19T07:29:37.304Z,99400.24
2018-12-19T07:32:08.409Z,99395.64
2018-12-19T07:34:44.191Z,99398.32
2018-12-19T07:37:12.823Z,99403.06
2018-12-19T07:39:43.904Z,99403.88
2018-12-19T07:42:15.048Z,99402.68
2018-12-19T07:44:46.076Z,99407.03
2018-12-19T07:47:17.223Z,99411.78
2018-12-19T07:49:48.283Z,99410.78
2018-12-19T07:52:19.428Z,99411.89
2018-12-19T07:54:51.884Z,99426.24
2018-12-19T07:57:22.984Z,99419.17
2018-12-19T07:59:54.076Z,99416.49
2018-12-19T08:02:25.243Z,99417.53
2018-12-19T08:04:56.428Z,99416.58
2018-12-19T08:07:28.570Z,99416.01
2018-12-19T08:09:59.593Z,99412.20
2018-12-19T08:12:36.059Z,99414.42
2018-12-19T08:15:03.791Z,99418.47
2018-12-19T08:17:34.909Z,99426.48
2018-12-19T08:20:06.236Z,99421.00
2018-12-19T08:22:37.543Z,99420.54
2018-12-19T08:25:08.635Z,99425.19
2018-12-19T08:27:40.779Z,99434.09
2018-12-19T08:30:11.754Z,99434.70
2018-12-19T08:32:42.861Z,99433.27
2018-12-19T08:35:13.951Z,99422.45
2018-12-19T08:37:45.049Z,99424.33
2018-12-19T08:40:16.029Z,99422.98
2018-12-19T08:42:47.143Z,99422.50
2018-12-19T08:45:18.652Z,99429.98
2018-12-19T08:47:49.643Z,99438.27
2018-12-19T08:50:20.631Z,99433.38
2018-12-19T08:52:52.199Z,99434.62
2018-12-19T08:55:23.313Z,99434.23
2018-12-19T08:57:54.589Z,99439.69
2018-12-19T09:00:25.687Z,99438.27
2018-12-19T09:02:56.792Z,99434.80
2018-12-19T09:05:27.883Z,99440.26
2018-12-19T09:07:59.420Z,99438.53
2018-12-19T09:10:30.531Z,99440.56
2018-12-19T09:13:01.651Z,99442.16
2018-12-19T09:15:38.045Z,99446.96
2018-12-19T09:18:09.273Z,99443.81
2018-12-19T09:20:40.508Z,99443.45
2018-12-19T09:23:11.667Z,99444.57
2018-12-19T09:25:42.815Z,99440.61
2018-12-19T09:28:13.944Z,99439.02
2018-12-19T09:30:44.944Z,99448.29
2018-12-19T09:33:16.091Z,99444.80
2018-12-19T09:35:47.111Z,99443.77
2018-12-19T09:38:18.223Z,99440.98
2018-12-19T09:40:49.351Z,99442.70
2018-12-19T09:43:20.379Z,99438.89
2018-12-19T09:45:51.466Z,99439.05
2018-12-19T09:48:22.600Z,99437.87
2018-12-19T09:50:53.568Z,99431.38
2018-12-19T09:53:24.893Z,99429.84
2018-12-19T09:55:56.092Z,99430.30
2018-12-19T09:58:27.206Z,99429.44
2018-12-19T10:00:58.883Z,99422.66
2018-12-19T10:03:31.085Z,99427.66
2018-12-19T10:06:03.263Z,99428.80
2018-12-19T10:08:34.388Z,99425.12
2018-12-19T10:11:05.363Z,99422.48
2018-12-19T10:13:36.488Z,99418.27
2018-12-19T10:16:07.711Z,99416.38
2018-12-19T10:18:38.865Z,99431.05
2018-12-19T10:21:09.948Z,99436.61
2018-12-19T10:23:41.113Z,99437.25
2018-12-19T10:26:14.103Z,99426.20
2018-12-19T10:28:45.199Z,99416.35
2018-12-19T10:31:16.348Z,99414.36
2018-12-19T10:33:47.389Z,99416.34
2018-12-19T10:36:22.605Z,99414.48
2018-12-19T10:38:53.818Z,99414.73
2018-12-19T10:41:25.614Z,99409.42
2018-12-19T10:43:57.557Z,99411.96
2018-12-19T10:46:28.657Z,99410.97
2018-12-19T10:48:59.841Z,99404.32
2018-12-19T10:51:30.827Z,99402.40
2018-12-19T10:54:01.942Z,99399.92
2018-12-19T10:56:33.045Z,99401.98
2018-12-19T10:59:04.264Z,99399.83
2018-12-19T11:01:35.656Z,99403.56
2018-12-19T11:59:31.633Z,99371.39
2018-12-19T12:02:08.575Z,99364.52
2018-12-19T12:04:45.620Z,99355.63
2018-12-19T12:07:19.695Z,99346.84
2018-12-19T12:09:54.368Z,99346.80
2018-12-19T12:12:25.986Z,99344.02
2018-12-19T12:14:57.596Z,99346.50
2018-12-19T12:17:35.371Z,99342.62
2018-12-19T12:20:08.648Z,99347.41
2018-12-19T12:22:41.103Z,99337.34
2018-12-19T12:25:12.456Z,99336.90
2018-12-19T12:27:43.566Z,99340.73
2018-12-19T12:30:14.670Z,99335.70
2018-12-19T12:32:45.660Z,99328.17
2018-12-19T12:35:16.899Z,99324.20
2018-12-19T12:37:48.009Z,99320.90
2018-12-19T12:40:19.079Z,99318.16
2018-12-19T12:42:50.243Z,99311.20
2018-12-19T12:45:21.694Z,99307.05
2018-12-19T12:47:52.868Z,99300.42
2018-12-19T12:50:23.946Z,99291.33
2018-12-19T12:52:56.188Z,99291.78
2018-12-19T12:55:27.278Z,99290.69
2018-12-19T12:57:58.395Z,99293.09
2018-12-19T13:00:29.591Z,99298.36
2018-12-19T13:03:00.596Z,99289.58
2018-12-19T13:05:31.672Z,99292.23
2018-12-19T13:08:02.785Z,99286.36
2018-12-19T13:10:36.408Z,99278.81
2018-12-19T13:13:07.976Z,99278.39
2018-12-19T13:15:44.114Z,99273.98
2018-12-19T13:18:15.753Z,99280.89
2018-12-19T13:20:46.722Z,99272.94
2018-12-19T13:23:17.721Z,99266.89
2018-12-19T13:25:48.813Z,99258.64
2018-12-19T13:28:19.923Z,99257.80
2018-12-19T13:30:50.913Z,99259.77
2018-12-19T13:33:22.127Z,99267.95
2018-12-19T13:35:53.334Z,99270.71
2018-12-19T13:38:24.444Z,99268.97
2018-12-19T13:40:55.528Z,99261.54
2018-12-19T13:43:26.513Z,99265.42
2018-12-19T13:45:57.613Z,99269.14
2018-12-19T13:48:28.739Z,99263.53
2018-12-19T13:50:59.836Z,99272.08
2018-12-19T13:53:30.897Z,99269.22
2018-12-19T14:00:47.570Z,99260.06
2018-12-19T14:03:18.728Z,99257.44
2018-12-19T14:05:49.818Z,99254.63
2018-12-19T14:08:20.952Z,99256.14
2018-12-19T14:10:52.073Z,99251.53
2018-12-19T14:13:23.212Z,99247.29
2018-12-19T14:15:54.419Z,99254.20
2018-12-19T14:18:25.540Z,99248.31
2018-12-19T14:20:56.668Z,99249.01
2018-12-19T14:23:27.693Z,99236.20
2018-12-19T14:25:58.763Z,99240.45
2018-12-19T14:28:29.759Z,99234.67
2018-12-19T14:31:00.747Z,99235.80
2018-12-19T14:33:31.867Z,99233.95
2018-12-19T14:36:02.939Z,99236.34
2018-12-19T14:38:34.103Z,99241.72
2018-12-19T14:41:05.358Z,99240.02
2018-12-19T14:43:36.507Z,99241.30
2018-12-19T14:46:09.079Z,99256.15
2018-12-19T14:48:40.736Z,99253.47
2018-12-19T14:51:12.039Z,99258.81
2018-12-19T14:53:43.212Z,99256.38
2018-12-19T14:56:14.288Z,99256.16
2018-12-19T14:58:46.756Z,99258.22
2018-12-19T15:01:17.832Z,99257.52
2018-12-19T15:03:49.040Z,99251.42
2018-12-19T15:06:20.247Z,99248.31
2018-12-19T15:08:51.589Z,99254.67
2018-12-19T15:11:22.667Z,99253.16
2018-12-19T15:14:00.106Z,99259.27
2018-12-19T15:16:31.270Z,99259.86
2018-12-19T15:19:02.439Z,99263.36
2018-12-19T15:21:33.601Z,99254.37
2018-12-19T15:24:04.653Z,99255.34
2018-12-19T15:26:35.828Z,99251.66
2018-12-19T15:29:06.961Z,99253.97
2018-12-19T15:31:38.154Z,99248.83
2018-12-19T15:34:09.300Z,99249.06
2018-12-19T15:36:40.593Z,99252.48
2018-12-19T15:39:11.688Z,99252.09
2018-12-19T15:41:44.732Z,99254.01
2018-12-19T15:44:15.837Z,99248.92
2018-12-19T15:46:47.025Z,99252.30
2018-12-19T15:49:18.275Z,99254.89
2018-12-19T15:51:49.351Z,99259.98
2018-12-19T15:54:20.487Z,99258.71
2018-12-19T15:56:51.579Z,99262.77
2018-12-19T15:59:22.679Z,99258.95
2018-12-19T16:01:53.771Z,99263.73
2018-12-19T16:04:24.873Z,99266.80
2018-12-19T16:06:56.258Z,99265.71
2018-12-19T16:09:27.324Z,99270.94
2018-12-19T16:11:58.410Z,99271.09
2018-12-19T16:14:29.897Z,99273.47
2018-12-19T16:17:00.994Z,99273.09
2018-12-19T16:19:32.179Z,99272.47
2018-12-19T16:22:03.267Z,99274.06
2018-12-19T16:24:34.433Z,99272.84
2018-12-19T16:27:05.585Z,99269.44
2018-12-19T16:29:36.973Z,99274.28
2018-12-19T16:32:08.063Z,99271.97
2018-12-19T16:34:39.379Z,99274.36
2018-12-19T16:37:10.543Z,99273.51
2018-12-19T16:39:42.120Z,99282.20
2018-12-19T16:42:13.367Z,99285.52
2018-12-19T16:44:44.511Z,99285.17
2018-12-19T16:47:16.624Z,99286.31
2018-12-19T16:49:48.260Z,99288.84
2018-12-19T16:52:20.340Z,99282.36
2018-12-19T16:54:51.770Z,99281.17
2018-12-19T16:57:22.845Z,99275.77
2018-12-19T16:59:53.949Z,99278.89
2018-12-19T17:02:24.973Z,99274.75
2018-12-19T17:04:56.089Z,99273.27
2018-12-19T17:07:27.157Z,99270.72
2018-12-19T17:09:58.299Z,99272.36
2018-12-19T17:12:29.273Z,99278.03
2018-12-19T17:15:00.629Z,99271.20
2018-12-19T17:17:32.032Z,99272.56
2018-12-19T17:20:03.143Z,99271.13
2018-12-19T17:22:34.216Z,99267.41
2018-12-19T17:25:05.633Z,99269.05
2018-12-19T17:27:36.735Z,99276.24
2018-12-19T17:30:07.861Z,99272.97
2018-12-19T17:32:40.243Z,99266.33
2018-12-19T17:35:11.353Z,99263.13
2018-12-19T17:37:42.425Z,99265.69
2018-12-19T17:40:13.523Z,99267.02
2018-12-19T17:42:44.624Z,99272.84
2018-12-19T17:45:15.580Z,99269.02
2018-12-19T17:47:46.729Z,99270.13
2018-12-19T17:50:17.731Z,99272.26
2018-12-19T17:52:48.729Z,99273.52
2018-12-19T17:55:19.807Z,99267.63
2018-12-19T17:57:50.957Z,99255.99
2018-12-19T18:00:22.053Z,99264.65
2018-12-19T18:02:53.143Z,99259.81
2018-12-19T18:05:24.381Z,99263.67
2018-12-19T18:07:55.527Z,99270.98
2018-12-19T18:10:26.518Z,99270.01
2018-12-19T18:12:57.616Z,99263.52
2018-12-19T18:15:28.851Z,99261.34
2018-12-19T18:17:59.976Z,99261.95
2018-12-19T18:20:31.052Z,99263.11
2018-12-19T18:23:02.041Z,99253.89
2018-12-19T18:25:33.120Z,99249.70
2018-12-19T18:28:04.232Z,99251.97
2018-12-19T18:30:35.212Z,99249.53
2018-12-19T18:33:06.393Z,99249.70
2018-12-19T18:35:37.473Z,99252.66
2018-12-19T18:38:08.572Z,99248.78
2018-12-19T18:40:39.547Z,99244.41
2018-12-19T18:43:13.011Z,99251.66
2018-12-19T18:45:43.792Z,99251.25
2018-12-19T18:48:14.960Z,99254.84
2018-12-19T18:50:46.067Z,99259.92
2018-12-19T18:53:17.184Z,99258.29
2018-12-19T18:55:48.477Z,99257.48
2018-12-19T18:58:19.568Z,99253.66
2018-12-19T19:00:50.571Z,99251.86
2018-12-19T19:03:21.819Z,99249.52
2018-12-19T19:05:52.945Z,99246.14
2018-12-19T19:08:24.314Z,99245.48
2018-12-19T19:10:55.533Z,99244.31
2018-12-19T19:13:26.657Z,99248.14
2018-12-19T19:15:57.868Z,99246.97
2018-12-19T19:18:29.124Z,99243.72
2018-12-19T19:21:01.279Z,99248.88
2018-12-19T19:23:32.560Z,99249.22
2018-12-19T19:26:03.717Z,99256.95
2018-12-19T19:28:34.704Z,99254.61
2018-12-19T19:31:05.875Z,99257.39
2018-12-19T19:33:37.142Z,99256.33
2018-12-19T19:36:08.263Z,99259.57
2018-12-19T19:38:39.353Z,99255.70
2018-12-19T19:41:10.340Z,99251.10
2018-12-19T19:43:41.508Z,99251.04
2018-12-19T19:46:12.725Z,99252.01
2018-12-19T19:48:43.885Z,99251.28
2018-12-19T19:51:17.109Z,99256.20
2018-12-19T19:53:48.147Z,99259.07
2018-12-19T19:56:19.312Z,99257.31
2018-12-19T19:58:50.428Z,99252.88
2018-12-19T20:01:21.512Z,99248.44
2018-12-19T20:03:53.164Z,99248.86
2018-12-19T20:06:24.157Z,99249.67
2018-12-19T20:09:00.540Z,99244.98
2018-12-19T20:11:38.707Z,99248.34
2018-12-19T20:14:15.024Z,99245.58
2018-12-19T20:17:03.652Z,99247.35
2018-12-19T20:19:34.945Z,99246.08
2018-12-19T20:22:07.100Z,99247.85
2018-12-19T20:24:38.272Z,99247.34
2018-12-19T20:27:09.509Z,99239.56
2018-12-19T20:29:40.602Z,99241.22
2018-12-19T20:32:12.734Z,99236.98
2018-12-19T20:34:43.887Z,99235.02
2018-12-19T20:37:14.971Z,99226.78
2018-12-19T20:39:46.192Z,99230.13
2018-12-19T20:42:17.267Z,99225.53
2018-12-19T20:44:48.378Z,99219.69
2018-12-19T20:47:19.471Z,99225.63
2018-12-19T20:49:50.679Z,99226.48
2018-12-19T20:52:21.713Z,99219.15
2018-12-19T20:54:52.843Z,99224.90
2018-12-19T20:57:24.196Z,99227.22
2018-12-19T20:59:55.397Z,99224.54
2018-12-19T21:02:26.560Z,99229.11
2018-12-19T21:04:57.659Z,99231.19
2018-12-19T21:07:28.753Z,99225.25
2018-12-19T21:09:59.862Z,99225.78
2018-12-19T21:12:30.936Z,99220.80
2018-12-19T21:15:02.124Z,99217.15
2018-12-19T21:17:38.577Z,99224.98
2018-12-19T21:20:09.539Z,99216.98
2018-12-19T21:22:40.687Z,99216.77
2018-12-19T21:25:11.836Z,99212.36
2018-12-19T21:27:42.808Z,99212.12
2018-12-19T21:30:14.263Z,99213.12
2018-12-19T21:32:45.359Z,99209.10
2018-12-19T21:35:16.347Z,99213.13
2018-12-19T21:37:47.481Z,99208.47
2018-12-19T21:40:18.582Z,99213.46
2018-12-19T21:42:49.650Z,99208.51
2018-12-19T21:45:20.844Z,99204.62
2018-12-19T21:47:51.992Z,99208.63
2018-12-19T21:50:23.106Z,99205.48
2018-12-19T21:52:54.325Z,99204.91
2018-12-19T21:55:25.496Z,99203.31
2018-12-19T21:57:56.523Z,99205.53
2018-12-19T22:00:34.570Z,99210.22
2018-12-19T22:03:07.018Z,99207.11
2018-12-19T22:05:40.328Z,99204.89
2018-12-19T22:08:11.482Z,99207.44
2018-12-19T22:10:42.738Z,99213.48
2018-12-19T22:13:13.972Z,99207.91
2018-12-19T22:15:45.139Z,99215.30
2018-12-19T22:18:22.539Z,99208.17
2018-12-19T22:20:53.635Z,99210.38
2018-12-19T22:23:24.821Z,99211.44
2018-12-19T22:25:55.947Z,99211.50
2018-12-19T22:28:27.052Z,99211.02
2018-12-19T22:30:58.205Z,99210.77
2018-12-19T22:33:29.282Z,99211.10
2018-12-19T22:36:00.471Z,99215.03
2018-12-19T22:38:31.585Z,99215.25
2018-12-19T22:41:02.839Z,99215.09
2018-12-19T22:43:33.921Z,99214.05
2018-12-19T22:46:05.117Z,99212.45
2018-12-19T22:48:36.356Z,99214.67
2018-12-19T22:51:07.452Z,99211.13
2018-12-19T22:53:38.404Z,99216.39
2018-12-19T22:56:09.503Z,99214.22
2018-12-19T22:58:40.578Z,99204.56
2018-12-19T23:02:21.246Z,99206.18
2018-12-19T23:04:52.234Z,99205.98
2018-12-19T23:07:23.350Z,99207.43
2018-12-19T23:09:54.520Z,99207.01
2018-12-19T23:12:25.680Z,99202.36
2018-12-19T23:14:56.703Z,99203.52
2018-12-19T23:17:38.577Z,99204.17
2018-12-19T23:20:15.656Z,99209.31
2018-12-19T23:22:52.323Z,99204.38
2018-12-19T23:25:28.943Z,99205.03
2018-12-19T23:28:02.001Z,99206.44
2018-12-19T23:30:34.936Z,99205.70
2018-12-19T23:33:06.043Z,99209.09
2018-12-19T23:35:37.114Z,99210.16
2018-12-19T23:38:08.288Z,99221.73
2018-12-19T23:40:39.498Z,99213.57
2018-12-19T23:43:10.549Z,99216.87
2018-12-19T23:45:41.560Z,99213.26
2018-12-19T23:48:12.898Z,99215.59
2018-12-19T23:50:44.005Z,99215.75
2018-12-19T23:53:15.183Z,99218.00
2018-12-19T23:55:46.289Z,99209.70
2018-12-19T23:58:17.467Z,99216.15
